createdAt,value
2018-06-24T00:00:27.126Z,99.9
2018-06-24T00:01:35.771Z,99.99
2018-06-24T00:02:44.406Z,99.23
2018-06-24T00:03:53.058Z,99.99
2018-06-24T00:05:01.709Z,99.99
2018-06-24T00:06:10.619Z,99.61
2018-06-24T00:07:19.534Z,99.8
2018-06-24T00:08:28.434Z,99.8
2018-06-24T00:09:37.080Z,99.71
2018-06-24T00:10:45.717Z,99.9
2018-06-24T00:11:54.369Z,99.23
2018-06-24T00:13:03.007Z,99.13
2018-06-24T00:14:11.713Z,99.42
2018-06-24T00:15:20.294Z,99.9
2018-06-24T00:16:28.936Z,99.04
2018-06-24T00:17:37.588Z,99.04
2018-06-24T00:18:46.227Z,99.04
2018-06-24T00:19:54.873Z,99.32
2018-06-24T00:21:03.517Z,99.23
2018-06-24T00:22:12.151Z,99.99
2018-06-24T00:23:20.816Z,99.9
2018-06-24T00:24:29.725Z,99.13
2018-06-24T00:25:38.371Z,99.9
2018-06-24T00:26:47.270Z,99.42
2018-06-24T00:27:55.917Z,99.04
2018-06-24T00:29:04.559Z,99.04
2018-06-24T00:30:13.211Z,99.61
2018-06-24T00:31:22.105Z,99.42
2018-06-24T00:32:31.293Z,99.32
2018-06-24T00:33:39.932Z,99.04
2018-06-24T00:34:48.853Z,99.13
2018-06-24T00:35:58.011Z,98.66
2018-06-24T00:37:06.726Z,99.04
2018-06-24T00:38:15.305Z,98.47
2018-06-24T00:39:23.959Z,98.18
2018-06-24T00:40:32.598Z,98.56
2018-06-24T00:41:41.236Z,98.47
2018-06-24T00:42:49.876Z,98.75
2018-06-24T00:43:58.517Z,99.13
2018-06-24T00:45:07.170Z,98.66
2018-06-24T00:46:15.808Z,98.75
2018-06-24T00:47:24.459Z,98.66
2018-06-24T00:48:33.094Z,98.75
2018-06-24T00:49:41.751Z,98.37
2018-06-24T00:50:50.391Z,98.56
2018-06-24T00:51:59.040Z,99.04
2018-06-24T00:53:07.674Z,99.99
2018-06-24T00:54:16.322Z,99.99
2018-06-24T00:55:24.964Z,99.99
2018-06-24T00:56:33.874Z,99.8
2018-06-24T00:57:42.510Z,99.99
2018-06-24T00:58:51.419Z,99.23
2018-06-24T01:00:00.107Z,99.23
2018-06-24T01:01:09.014Z,99.42
2018-06-24T01:02:17.659Z,99.99
2018-06-24T01:03:26.293Z,99.99
2018-06-24T01:04:34.941Z,99.99
2018-06-24T01:05:43.581Z,99.99
2018-06-24T01:06:52.235Z,99.99
2018-06-24T01:08:00.874Z,99.99
2018-06-24T01:09:10.053Z,99.99
2018-06-24T01:10:18.693Z,99.99
2018-06-24T01:11:27.350Z,99.99
2018-06-24T01:12:35.982Z,99.99
2018-06-24T01:13:44.634Z,99.99
2018-06-24T01:14:53.272Z,99.99
2018-06-24T01:16:01.922Z,99.99
2018-06-24T01:17:10.564Z,99.99
2018-06-24T01:18:19.473Z,99.99
2018-06-24T01:19:28.116Z,99.99
2018-06-24T01:20:36.756Z,99.99
2018-06-24T01:21:45.402Z,99.99
2018-06-24T01:22:54.047Z,99.99
2018-06-24T01:24:02.690Z,99.99
2018-06-24T01:25:11.328Z,99.99
2018-06-24T01:26:19.977Z,99.99
2018-06-24T01:27:28.624Z,99.99
2018-06-24T01:28:37.267Z,99.99
2018-06-24T01:29:46.176Z,99.99
2018-06-24T01:30:54.823Z,99.99
2018-06-24T01:32:03.466Z,99.99
2018-06-24T01:33:12.115Z,99.99
2018-06-24T01:34:20.750Z,99.99
2018-06-24T01:35:29.395Z,99.99
2018-06-24T01:36:38.038Z,99.99
2018-06-24T01:37:46.685Z,99.99
2018-06-24T01:38:55.329Z,99.99
2018-06-24T01:40:03.968Z,99.99
2018-06-24T01:41:12.608Z,99.99
2018-06-24T01:42:21.781Z,99.99
2018-06-24T01:43:30.431Z,99.99
2018-06-24T01:44:39.069Z,99.99
2018-06-24T01:45:47.719Z,99.99
2018-06-24T01:46:56.362Z,99.99
2018-06-24T01:48:05.012Z,99.99
2018-06-24T01:49:13.649Z,99.99
2018-06-24T01:50:22.294Z,99.99
2018-06-24T01:51:30.935Z,99.99
2018-06-24T01:52:39.584Z,99.99
2018-06-24T01:53:48.223Z,99.99
2018-06-24T01:54:57.395Z,99.99
2018-06-24T01:56:06.037Z,99.99
2018-06-24T01:57:14.675Z,99.99
2018-06-24T01:58:23.592Z,99.99
2018-06-24T01:59:32.236Z,99.99
2018-06-24T02:00:41.144Z,99.99
2018-06-24T02:01:49.781Z,99.99
2018-06-24T02:02:58.429Z,99.99
2018-06-24T02:04:07.071Z,99.99
2018-06-24T02:05:15.717Z,99.99
2018-06-24T02:06:24.353Z,99.99
2018-06-24T02:07:33.000Z,99.99
2018-06-24T02:08:41.642Z,99.99
2018-06-24T02:09:50.285Z,99.99
2018-06-24T02:10:58.924Z,99.99
2018-06-24T02:12:07.570Z,99.99
2018-06-24T02:13:16.477Z,99.99
2018-06-24T02:14:25.123Z,99.99
2018-06-24T02:15:33.772Z,99.99
2018-06-24T02:16:42.675Z,99.99
2018-06-24T02:17:51.581Z,99.99
2018-06-24T02:19:00.224Z,99.99
2018-06-24T02:20:08.870Z,99.99
2018-06-24T02:21:17.507Z,99.99
2018-06-24T02:22:26.149Z,99.99
2018-06-24T02:23:34.793Z,99.99
2018-06-24T02:24:43.991Z,99.99
2018-06-24T02:25:52.902Z,99.99
2018-06-24T02:27:01.547Z,99.99
2018-06-24T02:28:10.188Z,99.99
2018-06-24T02:29:19.102Z,99.99
2018-06-24T02:30:27.750Z,99.99
2018-06-24T02:31:36.399Z,99.99
2018-06-24T02:32:45.045Z,99.99
2018-06-24T02:33:53.958Z,99.99
2018-06-24T02:35:02.870Z,99.99
2018-06-24T02:36:11.513Z,99.99
2018-06-24T02:37:20.156Z,99.99
2018-06-24T02:38:29.067Z,99.99
2018-06-24T02:39:37.721Z,99.99
2018-06-24T02:40:46.627Z,99.99
2018-06-24T02:41:55.277Z,99.99
2018-06-24T02:43:03.925Z,99.99
2018-06-24T02:44:12.584Z,99.99
2018-06-24T02:45:21.753Z,99.99
2018-06-24T02:46:30.403Z,99.99
2018-06-24T02:47:39.047Z,99.99
2018-06-24T02:48:47.693Z,99.99
2018-06-24T02:49:56.349Z,99.99
2018-06-24T02:51:05.525Z,99.99
2018-06-24T02:52:14.719Z,99.99
2018-06-24T02:53:23.360Z,99.99
2018-06-24T02:54:32.012Z,99.99
2018-06-24T02:55:40.918Z,99.99
2018-06-24T02:56:49.833Z,99.99
2018-06-24T02:57:58.472Z,99.99
2018-06-24T02:59:07.159Z,99.99
2018-06-24T03:00:15.765Z,99.99
2018-06-24T03:01:24.414Z,99.99
2018-06-24T03:02:33.316Z,99.99
2018-06-24T03:03:41.961Z,99.99
2018-06-24T03:04:50.607Z,99.99
2018-06-24T03:05:59.265Z,99.99
2018-06-24T03:07:08.736Z,99.99
2018-06-24T03:08:17.659Z,99.99
2018-06-24T03:09:26.577Z,99.99
2018-06-24T03:10:35.231Z,99.99
2018-06-24T03:11:43.883Z,99.99
2018-06-24T03:12:52.536Z,99.99
2018-06-24T03:14:01.457Z,99.99
2018-06-24T03:15:10.366Z,99.99
2018-06-24T03:16:19.291Z,99.99
2018-06-24T03:17:27.938Z,99.99
2018-06-24T03:18:36.851Z,99.99
2018-06-24T03:19:46.020Z,99.99
2018-06-24T03:20:54.671Z,99.99
2018-06-24T03:22:03.579Z,99.99
2018-06-24T03:23:12.485Z,99.99
2018-06-24T03:24:21.122Z,99.99
2018-06-24T03:25:29.772Z,99.99
2018-06-24T03:26:38.417Z,99.99
2018-06-24T03:27:47.114Z,99.99
2018-06-24T03:28:55.710Z,99.99
2018-06-24T03:30:04.344Z,99.99
2018-06-24T03:31:13.184Z,99.99
2018-06-24T03:32:21.644Z,99.99
2018-06-24T03:33:30.298Z,99.99
2018-06-24T03:34:39.202Z,99.99
2018-06-24T03:35:48.120Z,99.99
2018-06-24T03:36:57.291Z,99.99
2018-06-24T03:38:05.949Z,99.99
2018-06-24T03:39:14.586Z,99.99
2018-06-24T03:40:23.283Z,99.99
2018-06-24T03:41:32.139Z,99.99
2018-06-24T03:42:41.056Z,99.99
2018-06-24T03:43:49.963Z,99.99
2018-06-24T03:44:58.601Z,99.99
2018-06-24T03:46:07.246Z,99.99
2018-06-24T03:47:15.885Z,99.99
2018-06-24T03:48:25.059Z,99.99
2018-06-24T03:49:33.699Z,99.99
2018-06-24T03:50:42.344Z,99.99
2018-06-24T03:51:50.979Z,99.99
2018-06-24T03:52:59.631Z,99.99
2018-06-24T03:54:08.269Z,99.99
2018-06-24T03:55:16.918Z,99.99
2018-06-24T03:56:25.550Z,99.99
2018-06-24T03:57:34.202Z,99.99
2018-06-24T03:58:42.846Z,99.99
2018-06-24T03:59:51.489Z,99.99
2018-06-24T04:01:00.140Z,99.99
2018-06-24T04:02:09.053Z,99.99
2018-06-24T04:03:17.702Z,99.99
2018-06-24T04:04:26.349Z,99.99
2018-06-24T04:05:34.994Z,99.99
2018-06-24T04:06:43.628Z,99.99
2018-06-24T04:07:52.273Z,99.99
2018-06-24T04:09:00.913Z,99.99
2018-06-24T04:10:09.829Z,99.99
2018-06-24T04:11:18.475Z,99.99
2018-06-24T04:12:27.111Z,99.99
2018-06-24T04:13:35.759Z,99.99
2018-06-24T04:14:44.393Z,99.99
2018-06-24T04:15:53.049Z,99.99
2018-06-24T04:17:01.690Z,99.99
2018-06-24T04:18:10.334Z,99.99
2018-06-24T04:19:18.969Z,99.99
2018-06-24T04:20:27.623Z,99.99
2018-06-24T04:21:36.270Z,99.99
2018-06-24T04:22:44.916Z,99.99
2018-06-24T04:23:53.563Z,99.99
2018-06-24T04:25:02.203Z,99.99
2018-06-24T04:26:10.851Z,99.99
2018-06-24T04:27:19.759Z,99.99
2018-06-24T04:28:28.677Z,99.99
2018-06-24T04:29:37.314Z,99.99
2018-06-24T04:30:46.224Z,99.99
2018-06-24T04:31:54.861Z,99.99
2018-06-24T04:33:03.515Z,99.99
2018-06-24T04:34:12.150Z,99.99
2018-06-24T04:35:21.060Z,99.99
2018-06-24T04:36:29.700Z,99.99
2018-06-24T04:37:38.619Z,99.99
2018-06-24T04:38:47.260Z,99.99
2018-06-24T04:39:56.168Z,99.99
2018-06-24T04:41:04.812Z,99.99
2018-06-24T04:42:13.451Z,99.99
2018-06-24T04:43:22.110Z,99.99
2018-06-24T04:44:30.750Z,99.99
2018-06-24T04:45:39.398Z,99.99
2018-06-24T04:46:48.032Z,99.99
2018-06-24T04:47:56.686Z,99.99
2018-06-24T04:49:05.331Z,99.99
2018-06-24T04:50:13.979Z,99.99
2018-06-24T04:51:22.876Z,99.99
2018-06-24T04:52:31.532Z,99.99
2018-06-24T04:53:40.175Z,99.99
2018-06-24T04:54:48.820Z,99.99
2018-06-24T04:55:57.987Z,99.99
2018-06-24T04:57:07.161Z,99.99
2018-06-24T04:58:15.806Z,99.8
2018-06-24T04:59:24.720Z,99.04
2018-06-24T05:00:33.361Z,99.43
2018-06-24T05:01:41.995Z,99.14
2018-06-24T05:02:50.645Z,99.04
2018-06-24T05:03:59.539Z,98.18
2018-06-24T05:05:08.463Z,98.04
2018-06-24T05:06:17.103Z,98.52
2018-06-24T05:07:26.041Z,98.13
2018-06-24T05:08:34.685Z,98.61
2018-06-24T05:09:43.337Z,97.94
2018-06-24T05:10:51.977Z,97.18
2018-06-24T05:12:00.885Z,97.94
2018-06-24T05:13:09.532Z,97.37
2018-06-24T05:14:18.182Z,97.18
2018-06-24T05:15:26.824Z,96.8
2018-06-24T05:16:35.496Z,96.89
2018-06-24T05:17:44.106Z,97.56
2018-06-24T05:18:52.748Z,97.18
2018-06-24T05:20:01.396Z,96.8
2018-06-24T05:21:10.040Z,97.08
2018-06-24T05:22:18.682Z,96.99
2018-06-24T05:23:27.323Z,96.8
2018-06-24T05:24:35.971Z,95.94
2018-06-24T05:25:44.885Z,96.61
2018-06-24T05:26:53.529Z,96.42
2018-06-24T05:28:02.169Z,96.13
2018-06-24T05:29:10.821Z,95.84
2018-06-24T05:30:19.459Z,95.84
2018-06-24T05:31:28.108Z,96.51
2018-06-24T05:32:36.747Z,96.32
2018-06-24T05:33:45.398Z,96.03
2018-06-24T05:34:54.040Z,95.98
2018-06-24T05:36:02.954Z,95.51
2018-06-24T05:37:11.599Z,95.61
2018-06-24T05:38:20.238Z,95.61
2018-06-24T05:39:29.143Z,95.12
2018-06-24T05:40:38.051Z,95.94
2018-06-24T05:41:46.970Z,95.12
2018-06-24T05:42:55.876Z,94.89
2018-06-24T05:44:04.847Z,94.74
2018-06-24T05:45:13.491Z,94.93
2018-06-24T05:46:22.141Z,94.74
2018-06-24T05:47:30.783Z,94.36
2018-06-24T05:48:39.436Z,94.7
2018-06-24T05:49:48.072Z,95.03
2018-06-24T05:50:56.987Z,94.46
2018-06-24T05:52:05.633Z,95.84
2018-06-24T05:53:14.280Z,95.84
2018-06-24T05:54:22.944Z,96.37
2018-06-24T05:55:31.994Z,96.08
2018-06-24T05:56:40.644Z,97.13
2018-06-24T05:57:49.287Z,95.32
2018-06-24T05:58:57.931Z,95.41
2018-06-24T06:00:06.574Z,95.61
2018-06-24T06:01:15.222Z,95.22
2018-06-24T06:02:23.867Z,95.7
2018-06-24T06:03:32.513Z,95.7
2018-06-24T06:04:41.416Z,94.65
2018-06-24T06:05:50.068Z,94.93
2018-06-24T06:06:58.707Z,94.55
2018-06-24T06:08:07.351Z,93.74
2018-06-24T06:09:16.268Z,94.5
2018-06-24T06:10:25.027Z,94.21
2018-06-24T06:11:33.552Z,94.21
2018-06-24T06:12:42.196Z,94.79
2018-06-24T06:13:51.004Z,94.41
2018-06-24T06:14:59.494Z,94.17
2018-06-24T06:16:08.448Z,94.55
2018-06-24T06:17:17.044Z,94.36
2018-06-24T06:18:25.683Z,94.55
2018-06-24T06:19:34.339Z,94.46
2018-06-24T06:20:42.983Z,94.17
2018-06-24T06:21:51.975Z,94.46
2018-06-24T06:23:00.536Z,93.6
2018-06-24T06:24:09.191Z,93.4
2018-06-24T06:25:17.833Z,94.07
2018-06-24T06:26:26.482Z,93.98
2018-06-24T06:27:35.118Z,93.21
2018-06-24T06:28:43.769Z,93.5
2018-06-24T06:29:52.416Z,93.88
2018-06-24T06:31:01.065Z,93.88
2018-06-24T06:32:09.726Z,93.98
2018-06-24T06:33:18.636Z,94.26
2018-06-24T06:34:27.286Z,94.17
2018-06-24T06:35:35.926Z,93.79
2018-06-24T06:36:44.583Z,92.74
2018-06-24T06:37:53.217Z,92.93
2018-06-24T06:39:01.874Z,92.59
2018-06-24T06:40:10.788Z,92.74
2018-06-24T06:41:19.440Z,92.4
2018-06-24T06:42:28.075Z,93.55
2018-06-24T06:43:36.723Z,93.5
2018-06-24T06:44:45.365Z,92.59
2018-06-24T06:45:54.371Z,92.97
2018-06-24T06:47:03.276Z,92.59
2018-06-24T06:48:11.919Z,91.53
2018-06-24T06:49:20.560Z,91.25
2018-06-24T06:50:29.204Z,91.63
2018-06-24T06:51:37.862Z,90.96
2018-06-24T06:52:46.760Z,91.16
2018-06-24T06:53:55.410Z,91.63
2018-06-24T06:55:04.313Z,91.35
2018-06-24T06:56:13.236Z,90.58
2018-06-24T06:57:21.876Z,91.16
2018-06-24T06:58:30.527Z,90.48
2018-06-24T06:59:39.165Z,90.44
2018-06-24T07:00:47.825Z,90.34
2018-06-24T07:01:56.465Z,90.05
2018-06-24T07:03:05.115Z,90.05
2018-06-24T07:04:13.761Z,90.15
2018-06-24T07:05:22.408Z,89.95
2018-06-24T07:06:31.058Z,90.63
2018-06-24T07:07:39.703Z,89.86
2018-06-24T07:08:48.351Z,89.48
2018-06-24T07:09:56.990Z,90.72
2018-06-24T07:11:05.639Z,90.53
2018-06-24T07:12:14.284Z,89.76
2018-06-24T07:13:22.939Z,89
2018-06-24T07:14:31.581Z,89.19
2018-06-24T07:15:40.533Z,89.29
2018-06-24T07:16:49.179Z,88.13
2018-06-24T07:17:58.095Z,87.95
2018-06-24T07:19:06.733Z,87.85
2018-06-24T07:20:15.383Z,88.04
2018-06-24T07:21:24.027Z,88.62
2018-06-24T07:22:32.679Z,88.43
2018-06-24T07:23:41.327Z,87.9
2018-06-24T07:24:49.975Z,87.95
2018-06-24T07:25:58.619Z,88.04
2018-06-24T07:27:07.262Z,88.52
2018-06-24T07:28:15.905Z,88.95
2018-06-24T07:29:24.551Z,89.04
2018-06-24T07:30:33.198Z,88.37
2018-06-24T07:31:41.844Z,88.47
2018-06-24T07:32:50.756Z,87.8
2018-06-24T07:33:59.663Z,87.03
2018-06-24T07:35:08.310Z,87.51
2018-06-24T07:36:16.950Z,87.32
2018-06-24T07:37:25.602Z,87.41
2018-06-24T07:38:34.296Z,86.55
2018-06-24T07:39:42.894Z,86.74
2018-06-24T07:40:51.537Z,87.32
2018-06-24T07:42:00.187Z,87.03
2018-06-24T07:43:08.831Z,87.03
2018-06-24T07:44:17.480Z,87.61
2018-06-24T07:45:26.133Z,87.23
2018-06-24T07:46:34.772Z,86.46
2018-06-24T07:47:43.418Z,86.46
2018-06-24T07:48:52.065Z,86.27
2018-06-24T07:50:00.979Z,86.65
2018-06-24T07:51:09.620Z,86.74
2018-06-24T07:52:18.267Z,87.13
2018-06-24T07:53:26.915Z,87.51
2018-06-24T07:54:35.570Z,87.03
2018-06-24T07:55:44.478Z,87.61
2018-06-24T07:56:53.126Z,87.41
2018-06-24T07:58:01.772Z,87.51
2018-06-24T07:59:10.426Z,87.9
2018-06-24T08:00:19.068Z,88.56
2018-06-24T08:01:27.718Z,88.56
2018-06-24T08:02:36.361Z,88.18
2018-06-24T08:03:45.006Z,87.9
2018-06-24T08:04:53.654Z,86.65
2018-06-24T08:06:02.301Z,86.17
2018-06-24T08:07:10.945Z,86.46
2018-06-24T08:08:19.597Z,86.74
2018-06-24T08:09:28.254Z,87.13
2018-06-24T08:10:36.902Z,86.79
2018-06-24T08:11:45.550Z,85.74
2018-06-24T08:12:54.202Z,86.02
2018-06-24T08:14:02.843Z,84.78
2018-06-24T08:15:11.492Z,83.82
2018-06-24T08:16:20.143Z,84.11
2018-06-24T08:17:28.788Z,84.2
2018-06-24T08:18:37.434Z,84.58
2018-06-24T08:19:46.081Z,85.64
2018-06-24T08:20:54.726Z,84.68
2018-06-24T08:22:03.371Z,85.06
2018-06-24T08:23:12.025Z,84.97
2018-06-24T08:24:20.672Z,84.68
2018-06-24T08:25:29.320Z,85.06
2018-06-24T08:26:37.966Z,85.16
2018-06-24T08:27:46.619Z,83.25
2018-06-24T08:28:55.264Z,83.05
2018-06-24T08:30:04.184Z,83.44
2018-06-24T08:31:12.827Z,84.3
2018-06-24T08:32:21.742Z,84.39
2018-06-24T08:33:30.394Z,83.44
2018-06-24T08:34:39.038Z,83.63
2018-06-24T08:35:47.690Z,82.96
2018-06-24T08:36:56.605Z,82.96
2018-06-24T08:38:05.516Z,81.9
2018-06-24T08:39:14.432Z,82.38
2018-06-24T08:40:23.086Z,82.48
2018-06-24T08:41:31.727Z,81.04
2018-06-24T08:42:40.368Z,80.89
2018-06-24T08:43:49.283Z,80.99
2018-06-24T08:44:57.936Z,81.46
2018-06-24T08:46:06.846Z,81.37
2018-06-24T08:47:15.500Z,80.79
2018-06-24T08:48:24.142Z,80.51
2018-06-24T08:49:32.792Z,80.99
2018-06-24T08:50:41.440Z,80.32
2018-06-24T08:51:50.348Z,79.93
2018-06-24T08:52:58.991Z,80.6
2018-06-24T08:54:07.647Z,80.12
2018-06-24T08:55:16.290Z,80.12
2018-06-24T08:56:24.937Z,79.64
2018-06-24T08:57:33.585Z,80.51
2018-06-24T08:58:42.230Z,80.6
2018-06-24T08:59:50.884Z,80.32
2018-06-24T09:00:59.529Z,80.79
2018-06-24T09:02:08.198Z,80.03
2018-06-24T09:03:17.082Z,80.22
2018-06-24T09:04:25.735Z,79.93
2018-06-24T09:05:34.424Z,79.83
2018-06-24T09:06:43.290Z,79.93
2018-06-24T09:07:51.932Z,80.41
2018-06-24T09:09:00.586Z,80.76
2018-06-24T09:10:09.229Z,81.56
2018-06-24T09:11:17.879Z,81.37
2018-06-24T09:12:26.515Z,81.62
2018-06-24T09:13:35.179Z,82.14
2018-06-24T09:14:43.816Z,82.42
2018-06-24T09:15:52.514Z,82.23
2018-06-24T09:17:01.121Z,81.27
2018-06-24T09:18:09.756Z,82.52
2018-06-24T09:19:18.412Z,83.38
2018-06-24T09:20:27.316Z,83.09
2018-06-24T09:21:35.973Z,83
2018-06-24T09:22:44.613Z,83.09
2018-06-24T09:23:53.262Z,83.38
2018-06-24T09:25:02.437Z,84.25
2018-06-24T09:26:11.098Z,84.15
2018-06-24T09:27:19.735Z,83.38
2018-06-24T09:28:28.383Z,82.62
2018-06-24T09:29:37.028Z,81.75
2018-06-24T09:30:45.706Z,81.71
2018-06-24T09:31:54.673Z,82.42
2018-06-24T09:33:03.316Z,80.7
2018-06-24T09:34:12.222Z,82.57
2018-06-24T09:35:20.865Z,82.96
2018-06-24T09:36:30.050Z,82.09
2018-06-24T09:37:38.695Z,81.81
2018-06-24T09:38:47.609Z,81.43
2018-06-24T09:39:56.247Z,81.52
2018-06-24T09:41:04.972Z,81.66
2018-06-24T09:42:13.545Z,81.75
2018-06-24T09:43:22.198Z,81.18
2018-06-24T09:44:30.835Z,81.18
2018-06-24T09:45:39.491Z,79.74
2018-06-24T09:46:48.137Z,80.22
2018-06-24T09:47:56.786Z,79.45
2018-06-24T09:49:05.424Z,80.26
2018-06-24T09:50:14.073Z,79.97
2018-06-24T09:51:23.000Z,80.74
2018-06-24T09:52:31.649Z,79.49
2018-06-24T09:53:40.301Z,79.39
2018-06-24T09:54:48.938Z,80.35
2018-06-24T09:55:57.589Z,80.45
2018-06-24T09:57:06.504Z,80.83
2018-06-24T09:58:15.159Z,79.3
2018-06-24T09:59:24.059Z,79.11
2018-06-24T10:00:32.714Z,78.53
2018-06-24T10:01:41.619Z,79.3
2018-06-24T10:02:50.272Z,79.82
2018-06-24T10:03:58.913Z,79.97
2018-06-24T10:05:07.564Z,80.26
2018-06-24T10:06:16.210Z,81.12
2018-06-24T10:07:24.869Z,81.6
2018-06-24T10:08:33.511Z,81.22
2018-06-24T10:09:42.161Z,81.89
2018-06-24T10:10:50.803Z,79.78
2018-06-24T10:11:59.476Z,78.92
2018-06-24T10:13:08.110Z,79.39
2018-06-24T10:14:16.750Z,79.88
2018-06-24T10:15:25.399Z,78.72
2018-06-24T10:16:34.043Z,78.82
2018-06-24T10:17:42.695Z,79.59
2018-06-24T10:18:51.342Z,78.72
2018-06-24T10:19:59.991Z,79.3
2018-06-24T10:21:08.637Z,79.88
2018-06-24T10:22:17.288Z,79.49
2018-06-24T10:23:25.931Z,78.72
2018-06-24T10:24:34.585Z,80.74
2018-06-24T10:25:43.235Z,80.55
2018-06-24T10:26:52.156Z,81.22
2018-06-24T10:28:00.803Z,80.93
2018-06-24T10:29:09.723Z,81.31
2018-06-24T10:30:18.644Z,81.79
2018-06-24T10:31:27.291Z,81.22
2018-06-24T10:32:36.497Z,82.46
2018-06-24T10:33:45.683Z,83.23
2018-06-24T10:34:54.335Z,83.33
2018-06-24T10:36:02.979Z,84
2018-06-24T10:37:11.633Z,83.61
2018-06-24T10:38:20.280Z,84.77
2018-06-24T10:39:28.931Z,84.09
2018-06-24T10:40:37.574Z,85.97
2018-06-24T10:41:46.226Z,86.54
2018-06-24T10:42:54.870Z,87.21
2018-06-24T10:44:03.524Z,86.74
2018-06-24T10:45:12.170Z,87.27
2018-06-24T10:46:20.818Z,88.99
2018-06-24T10:47:29.461Z,90.14
2018-06-24T10:48:38.368Z,90.23
2018-06-24T10:49:47.287Z,90.14
2018-06-24T10:50:55.931Z,89.09
2018-06-24T10:52:04.578Z,90.05
2018-06-24T10:53:13.219Z,90.33
2018-06-24T10:54:21.870Z,90.53
2018-06-24T10:55:30.514Z,90.72
2018-06-24T10:56:39.160Z,89.28
2018-06-24T10:57:47.801Z,89.76
2018-06-24T10:58:56.453Z,90.05
2018-06-24T11:00:05.105Z,89.28
2018-06-24T11:01:13.755Z,89.28
2018-06-24T11:02:22.430Z,89.71
2018-06-24T11:03:31.038Z,89.61
2018-06-24T11:04:39.954Z,89.71
2018-06-24T11:05:48.603Z,89.42
2018-06-24T11:06:57.250Z,89.32
2018-06-24T11:08:05.887Z,87.45
2018-06-24T11:09:14.817Z,86.83
2018-06-24T11:10:23.458Z,87.07
2018-06-24T11:11:32.113Z,84.91
2018-06-24T11:12:40.750Z,85.68
2018-06-24T11:13:49.409Z,85.78
2018-06-24T11:14:58.046Z,85.68
2018-06-24T11:16:06.702Z,86.45
2018-06-24T11:17:15.344Z,86.64
2018-06-24T11:18:23.996Z,86.45
2018-06-24T11:19:32.638Z,86.58
2018-06-24T11:20:41.294Z,84.48
2018-06-24T11:21:49.995Z,86.11
2018-06-24T11:22:58.585Z,86.01
2018-06-24T11:24:07.231Z,84.48
2018-06-24T11:25:15.875Z,83.52
2018-06-24T11:26:24.530Z,84.48
2018-06-24T11:27:33.173Z,84.77
2018-06-24T11:28:41.824Z,83.04
2018-06-24T11:29:50.462Z,84.09
2018-06-24T11:30:59.409Z,83.33
2018-06-24T11:32:08.031Z,83.42
2018-06-24T11:33:16.683Z,84.09
2018-06-24T11:34:25.324Z,85.72
2018-06-24T11:35:34.247Z,85.82
2018-06-24T11:36:42.892Z,85.68
2018-06-24T11:37:51.544Z,86.78
2018-06-24T11:39:00.451Z,86.68
2018-06-24T11:40:09.101Z,83.91
2018-06-24T11:41:17.794Z,84.67
2018-06-24T11:42:26.406Z,83.14
2018-06-24T11:43:35.322Z,83.23
2018-06-24T11:44:44.227Z,85.05
2018-06-24T11:45:53.144Z,85.34
2018-06-24T11:47:02.048Z,82.75
2018-06-24T11:48:10.703Z,83.09
2018-06-24T11:49:19.346Z,84.44
2018-06-24T11:50:27.996Z,85.21
2018-06-24T11:51:36.643Z,85.58
2018-06-24T11:52:45.297Z,84.38
2018-06-24T11:53:53.936Z,84.05
2018-06-24T11:55:02.585Z,85.15
2018-06-24T11:56:11.236Z,84.91
2018-06-24T11:57:19.889Z,83.29
2018-06-24T11:58:28.536Z,84
2018-06-24T11:59:37.177Z,84.48
2018-06-24T12:00:45.829Z,85.15
2018-06-24T12:01:54.526Z,85.15
2018-06-24T12:03:03.121Z,82.85
2018-06-24T12:04:11.777Z,83.61
2018-06-24T12:05:20.694Z,85.05
2018-06-24T12:06:29.350Z,84.28
2018-06-24T12:07:37.989Z,83.52
2018-06-24T12:08:46.642Z,82.56
2018-06-24T12:09:55.548Z,82.46
2018-06-24T12:11:04.208Z,83.14
2018-06-24T12:12:13.370Z,82.94
2018-06-24T12:13:22.018Z,83.67
2018-06-24T12:14:30.662Z,83.58
2018-06-24T12:15:39.318Z,83.19
2018-06-24T12:16:47.966Z,84.82
2018-06-24T12:17:56.616Z,84.44
2018-06-24T12:19:05.528Z,85.21
2018-06-24T12:20:14.178Z,85.01
2018-06-24T12:21:23.096Z,83.95
2018-06-24T12:22:31.743Z,83.58
2018-06-24T12:23:40.400Z,84.05
2018-06-24T12:24:49.039Z,83.33
2018-06-24T12:25:57.696Z,82.56
2018-06-24T12:27:06.341Z,81.7
2018-06-24T12:28:14.994Z,81.89
2018-06-24T12:29:23.897Z,82.56
2018-06-24T12:30:32.819Z,82.08
2018-06-24T12:31:41.468Z,81.31
2018-06-24T12:32:50.384Z,81.6
2018-06-24T12:33:59.023Z,81.6
2018-06-24T12:35:07.674Z,80.55
2018-06-24T12:36:16.327Z,81.12
2018-06-24T12:37:24.985Z,81.41
2018-06-24T12:38:33.627Z,82.46
2018-06-24T12:39:42.527Z,81.89
2018-06-24T12:40:51.180Z,81.51
2018-06-24T12:41:59.826Z,82.08
2018-06-24T12:43:08.486Z,83.04
2018-06-24T12:44:17.390Z,83.33
2018-06-24T12:45:26.047Z,83.04
2018-06-24T12:46:34.690Z,81.51
2018-06-24T12:47:43.349Z,81.41
2018-06-24T12:48:51.988Z,81.51
2018-06-24T12:50:00.637Z,82.65
2018-06-24T12:51:09.281Z,82.75
2018-06-24T12:52:17.939Z,81.98
2018-06-24T12:53:26.586Z,83.23
2018-06-24T12:54:35.229Z,81.79
2018-06-24T12:55:43.876Z,81.98
2018-06-24T12:56:52.518Z,82.27
2018-06-24T12:58:01.177Z,83.04
2018-06-24T12:59:10.065Z,83.14
2018-06-24T13:00:19.856Z,82.65
2018-06-24T13:01:29.215Z,82.56
2018-06-24T13:02:37.868Z,82.75
2018-06-24T13:03:46.516Z,83.33
2018-06-24T13:04:55.163Z,82.94
2018-06-24T13:06:03.807Z,83.04
2018-06-24T13:07:12.467Z,82.85
2018-06-24T13:08:21.114Z,83.04
2018-06-24T13:09:30.026Z,82.89
2018-06-24T13:10:39.198Z,82.31
2018-06-24T13:11:47.846Z,81.16
2018-06-24T13:12:56.494Z,82.7
2018-06-24T13:14:05.412Z,81.64
2018-06-24T13:15:14.391Z,81.64
2018-06-24T13:16:23.300Z,82.12
2018-06-24T13:17:31.950Z,82.65
2018-06-24T13:18:40.594Z,82.98
2018-06-24T13:19:49.250Z,82.51
2018-06-24T13:20:58.154Z,81.98
2018-06-24T13:22:06.803Z,82.46
2018-06-24T13:23:15.448Z,83.23
2018-06-24T13:24:24.105Z,84.19
2018-06-24T13:25:32.747Z,84.86
2018-06-24T13:26:41.404Z,85.34
2018-06-24T13:27:50.315Z,83.91
2018-06-24T13:28:58.967Z,84.09
2018-06-24T13:30:07.622Z,84.95
2018-06-24T13:31:16.528Z,85.49
2018-06-24T13:32:25.171Z,85.72
2018-06-24T13:33:33.817Z,84.44
2018-06-24T13:34:42.467Z,84.77
2018-06-24T13:35:51.378Z,85.21
2018-06-24T13:37:00.028Z,85.44
2018-06-24T13:38:08.932Z,85.97
2018-06-24T13:39:17.857Z,85.97
2018-06-24T13:40:26.620Z,85.63
2018-06-24T13:41:35.152Z,85.05
2018-06-24T13:42:44.059Z,85.39
2018-06-24T13:43:52.710Z,85.78
2018-06-24T13:45:01.361Z,86.07
2018-06-24T13:46:10.015Z,85.58
2018-06-24T13:47:18.921Z,85.92
2018-06-24T13:48:27.573Z,86.49
2018-06-24T13:49:36.481Z,86.01
2018-06-24T13:50:45.131Z,85.82
2018-06-24T13:51:53.779Z,85.82
2018-06-24T13:53:02.422Z,86.01
2018-06-24T13:54:11.333Z,85.44
2018-06-24T13:55:19.982Z,85.53
2018-06-24T13:56:28.899Z,85.15
2018-06-24T13:57:37.540Z,85
2018-06-24T13:58:46.189Z,85.19
2018-06-24T13:59:54.840Z,83.37
2018-06-24T14:01:03.493Z,83.94
2018-06-24T14:02:12.409Z,84.33
2018-06-24T14:03:21.060Z,85.48
2018-06-24T14:04:29.705Z,85.96
2018-06-24T14:05:38.358Z,85.53
2018-06-24T14:06:47.003Z,86.78
2018-06-24T14:07:55.691Z,86.58
2018-06-24T14:09:04.298Z,86.97
2018-06-24T14:10:12.945Z,88.02
2018-06-24T14:11:21.599Z,88.6
2018-06-24T14:12:30.249Z,89.85
2018-06-24T14:13:38.899Z,90.04
2018-06-24T14:14:47.844Z,90.28
2018-06-24T14:15:56.721Z,90.57
2018-06-24T14:17:05.368Z,91.34
2018-06-24T14:18:14.275Z,91.72
2018-06-24T14:19:22.919Z,92.1
2018-06-24T14:20:31.573Z,91.91
2018-06-24T14:21:40.216Z,91.24
2018-06-24T14:22:48.866Z,91.63
2018-06-24T14:23:57.770Z,92.2
2018-06-24T14:25:06.421Z,91.72
2018-06-24T14:26:15.069Z,91.72
2018-06-24T14:27:23.720Z,91.24
2018-06-24T14:28:32.372Z,92.06
2018-06-24T14:29:41.014Z,91.96
2018-06-24T14:30:49.660Z,92.63
2018-06-24T14:31:58.306Z,92.63
2018-06-24T14:33:06.953Z,92.92
2018-06-24T14:34:15.597Z,93.3
2018-06-24T14:35:24.243Z,93.21
2018-06-24T14:36:32.892Z,94.07
2018-06-24T14:37:41.803Z,93.98
2018-06-24T14:38:50.444Z,93.98
2018-06-24T14:39:59.354Z,93.49
2018-06-24T14:41:07.997Z,93.35
2018-06-24T14:42:16.648Z,93.4
2018-06-24T14:43:25.297Z,93.78
2018-06-24T14:44:33.944Z,92.82
2018-06-24T14:45:42.591Z,93.4
2018-06-24T14:46:51.767Z,93.3